Time;durP1;ratioP1;P1;durP2;ratioP2;P2;SDS_P1;SDS_P2;PMS_P1;PMS_P2;Temp;Humidity;BMP_temperature;BMP_pressure;BME280_temperature;BME280_humidity;BME280_pressure;Samples;Min_cycle;Max_cycle;Signal;HPM_P1;HPM_P2
2022/01/23 00:00:05;;;;;;;0.68;0.52;;;3.70;99.90;;;;;;5016623;28;20512;-87
2022/01/23 00:02:33;;;;;;;0.00;0.00;;;3.60;99.90;;;;;;5015230;28;20030;-75
2022/01/23 00:05:06;;;;;;;0.00;0.00;;;3.60;99.90;;;;;;5016319;28;20064;-87
2022/01/23 00:07:35;;;;;;;1.02;1.02;;;3.50;99.90;;;;;;5007256;28;20452;-86
2022/01/23 00:10:05;;;;;;;0.35;0.35;;;3.50;99.90;;;;;;5014524;28;20029;-75
2022/01/23 00:12:36;;;;;;;2.83;0.63;;;3.40;99.90;;;;;;5015998;28;20034;-75
2022/01/23 00:17:47;;;;;;;0.10;0.08;;;3.40;99.90;;;;;;5016918;28;20085;-87
2022/01/23 00:20:13;;;;;;;4.18;0.50;;;3.40;99.90;;;;;;5014790;28;20029;-82
2022/01/23 00:22:53;;;;;;;1.60;1.40;;;3.30;99.90;;;;;;5015404;28;20413;-75
2022/01/23 00:30:50;;;;;;;0.00;0.00;;;3.30;99.90;;;;;;5014346;28;20053;-75
2022/01/23 00:33:17;;;;;;;0.20;0.20;;;3.30;99.90;;;;;;5017271;28;20025;-87
2022/01/23 00:35:45;;;;;;;0.28;0.28;;;3.30;99.90;;;;;;5014287;28;20023;-87
2022/01/23 00:38:13;;;;;;;0.50;0.50;;;3.20;99.90;;;;;;5013761;28;20026;-87
2022/01/23 00:40:41;;;;;;;0.05;0.05;;;3.20;99.90;;;;;;5016085;28;20026;-75
2022/01/23 00:43:28;;;;;;;2.85;1.45;;;3.20;99.90;;;;;;5014662;28;20406;-87
2022/01/23 00:46:21;;;;;;;0.88;0.70;;;3.20;99.90;;;;;;4996463;28;20532;-87
2022/01/23 00:51:29;;;;;;;0.80;0.80;;;3.20;99.90;;;;;;5015563;28;20066;-75
2022/01/23 00:53:55;;;;;;;;;;;3.30;99.90;;;;;;5002857;28;20040;-75
2022/01/23 00:56:21;;;;;;;1.20;0.75;;;3.30;99.90;;;;;;5013869;28;19996;-85
2022/01/23 00:58:48;;;;;;;0.20;0.20;;;3.30;99.90;;;;;;5013755;28;20045;-75
2022/01/23 01:01:14;;;;;;;1.83;0.85;;;3.30;99.90;;;;;;5013878;28;20447;-75
2022/01/23 01:03:41;;;;;;;0.63;0.63;;;3.30;99.90;;;;;;5014197;28;20026;-87
2022/01/23 01:06:07;;;;;;;0.28;0.28;;;3.30;99.90;;;;;;5015040;28;20493;-75
2022/01/23 01:08:34;;;;;;;0.70;0.40;;;3.30;99.90;;;;;;5016009;28;20121;-87
2022/01/23 01:35:25;;;;;;;0.60;0.60;;;3.30;99.90;;;;;;5014997;28;20029;-76
2022/01/23 01:37:51;;;;;;;0.80;0.80;;;3.30;99.90;;;;;;5014283;28;20031;-87
2022/01/23 01:40:19;;;;;;;0.63;0.63;;;3.30;99.90;;;;;;5013330;28;20030;-87
2022/01/23 01:42:46;;;;;;;0.82;0.82;;;3.30;99.90;;;;;;5014490;28;20105;-86
2022/01/23 01:45:13;;;;;;;0.47;0.47;;;3.40;99.90;;;;;;5014561;28;20026;-75
2022/01/23 01:47:47;;;;;;;0.47;0.47;;;3.40;99.90;;;;;;5003835;28;20062;-87
2022/01/23 01:50:13;;;;;;;2.13;1.55;;;3.40;99.90;;;;;;5013667;28;20048;-85
2022/01/23 01:52:41;;;;;;;11.82;2.45;;;3.40;99.90;;;;;;5014393;28;20097;-86
2022/01/23 01:55:10;;;;;;;1.17;1.13;;;3.40;99.90;;;;;;5013922;28;20026;-75
2022/01/23 01:57:43;;;;;;;0.98;0.98;;;3.40;99.90;;;;;;5012822;28;20114;-87
2022/01/23 02:02:53;;;;;;;0.20;0.20;;;3.50;99.90;;;;;;5015332;28;20065;-87
2022/01/23 02:10:53;;;;;;;0.50;0.50;;;3.50;99.90;;;;;;5014068;28;20065;-87
2022/01/23 02:13:40;;;;;;;2.92;1.63;;;3.50;99.90;;;;;;5012607;28;20103;-87
2022/01/23 02:51:12;;;;;;;0.68;0.68;;;3.50;99.90;;;;;;5013357;28;20460;-75
2022/01/23 02:56:22;;;;;;;0.57;0.57;;;3.50;99.90;;;;;;5013931;28;20040;-87
2022/01/23 02:58:58;;;;;;;0.20;0.20;;;3.50;99.90;;;;;;5001545;28;20097;-87
2022/01/23 03:01:28;;;;;;;2.10;1.05;;;3.50;99.90;;;;;;5011533;28;20026;-86
2022/01/23 03:04:00;;;;;;;0.60;0.60;;;3.50;99.90;;;;;;5004464;28;20245;-87
2022/01/23 03:25:59;;;;;;;0.57;0.55;;;3.60;99.90;;;;;;5014464;28;20520;-87
2022/01/23 03:30:52;;;;;;;0.32;0.32;;;3.60;99.90;;;;;;5013085;28;20064;-86
2022/01/23 03:33:19;;;;;;;1.45;1.35;;;3.60;99.90;;;;;;5012683;28;20054;-87
2022/01/23 03:35:45;;;;;;;13.00;2.47;;;3.60;99.90;;;;;;5009597;28;20032;-87
2022/01/23 03:38:11;;;;;;;0.52;0.52;;;3.60;99.90;;;;;;5011457;28;20029;-75
2022/01/23 03:40:37;;;;;;;6.00;1.95;;;3.60;99.90;;;;;;5012826;28;20018;-87
2022/01/23 03:43:11;;;;;;;1.27;1.17;;;3.60;99.90;;;;;;5013735;28;20046;-87
2022/01/23 03:50:39;;;;;;;0.55;0.55;;;3.70;99.90;;;;;;5012821;28;20045;-75
2022/01/23 03:53:06;;;;;;;0.68;0.60;;;3.70;99.90;;;;;;5011833;28;20045;-87
2022/01/23 03:55:34;;;;;;;0.93;0.93;;;3.70;99.90;;;;;;4999801;28;20025;-87
2022/01/23 03:58:01;;;;;;;1.05;0.95;;;3.70;99.90;;;;;;5002340;28;20053;-86
2022/01/23 04:00:27;;;;;;;1.15;1.05;;;3.60;99.90;;;;;;5015133;28;20112;-87
2022/01/23 04:02:52;;;;;;;1.05;1.00;;;3.70;99.90;;;;;;5016648;28;20030;-87
2022/01/23 04:05:18;;;;;;;0.57;0.35;;;3.70;99.90;;;;;;5015963;28;20044;-75
2022/01/23 04:07:46;;;;;;;0.35;0.35;;;3.70;99.90;;;;;;5004770;28;20482;-87
2022/01/23 04:10:14;;;;;;;0.32;0.32;;;3.70;99.90;;;;;;5015406;28;20026;-87
2022/01/23 04:12:52;;;;;;;0.90;0.90;;;3.70;99.90;;;;;;5012239;28;20482;-75
2022/01/23 04:45:19;;;;;;;0.32;0.32;;;3.60;99.90;;;;;;5015561;28;20083;-87
2022/01/23 05:01:42;;;;;;;1.27;1.17;;;3.60;99.90;;;;;;5016121;28;20029;-87
2022/01/23 05:04:20;;;;;;;1.35;1.25;;;3.60;99.90;;;;;;5013882;28;20397;-85
2022/01/23 05:06:58;;;;;;;1.27;1.17;;;3.60;99.90;;;;;;5007575;28;20545;-87
2022/01/23 05:09:24;;;;;;;0.60;0.50;;;3.60;99.90;;;;;;5010325;28;20049;-87
2022/01/23 05:11:56;;;;;;;0.20;0.20;;;3.50;99.90;;;;;;5014221;28;20037;-87
2022/01/23 05:14:35;;;;;;;0.22;0.22;;;3.60;99.90;;;;;;5012775;28;20030;-87
2022/01/23 05:17:03;;;;;;;1.45;0.65;;;3.60;99.90;;;;;;5005608;28;20052;-87
2022/01/23 05:19:29;;;;;;;0.80;0.80;;;3.50;99.90;;;;;;5012865;28;20022;-88
2022/01/23 05:24:39;;;;;;;0.50;0.50;;;3.60;99.90;;;;;;5015314;28;20025;-75
2022/01/23 05:27:08;;;;;;;2.28;0.80;;;3.50;99.90;;;;;;5013697;28;20441;-87
2022/01/23 05:29:34;;;;;;;0.75;0.70;;;3.50;99.90;;;;;;5015582;28;20029;-86
2022/01/23 05:32:01;;;;;;;0.43;0.30;;;3.50;99.90;;;;;;5011679;28;20026;-87
2022/01/23 05:34:27;;;;;;;1.73;1.05;;;3.50;99.90;;;;;;5014331;28;20428;-87
2022/01/23 05:36:53;;;;;;;1.30;0.85;;;3.50;99.90;;;;;;5014076;28;20026;-76
2022/01/23 05:39:21;;;;;;;0.82;0.82;;;3.50;99.90;;;;;;5014943;28;20050;-87
2022/01/23 05:41:52;;;;;;;0.55;0.55;;;3.50;99.90;;;;;;5002026;28;20030;-75
2022/01/23 05:44:19;;;;;;;2.25;1.65;;;3.50;99.90;;;;;;5013344;28;20022;-87
2022/01/23 05:46:45;;;;;;;0.68;0.68;;;3.50;99.90;;;;;;5013105;28;20489;-87
2022/01/23 05:49:11;;;;;;;0.65;0.65;;;3.50;99.90;;;;;;5015726;28;20092;-87
2022/01/23 05:51:36;;;;;;;1.02;0.95;;;3.40;99.90;;;;;;5012097;28;20572;-87
2022/01/23 05:54:03;;;;;;;2.05;1.95;;;3.40;99.90;;;;;;5013533;28;20105;-87
2022/01/23 05:56:28;;;;;;;2.08;0.90;;;3.40;99.90;;;;;;5012002;28;20066;-87
2022/01/23 05:58:55;;;;;;;2.25;1.30;;;3.40;99.90;;;;;;5015074;28;20073;-86
2022/01/23 06:01:20;;;;;;;0.88;0.88;;;3.40;99.90;;;;;;5014020;28;20037;-87
2022/01/23 06:03:46;;;;;;;1.75;0.85;;;3.40;99.90;;;;;;5013848;28;20401;-86
2022/01/23 06:06:12;;;;;;;0.00;0.00;;;3.40;99.90;;;;;;5014172;28;20485;-87
2022/01/23 06:08:38;;;;;;;1.15;1.15;;;3.40;99.90;;;;;;5013838;28;20033;-86
2022/01/23 06:11:04;;;;;;;1.15;1.00;;;3.40;99.90;;;;;;5013361;28;20072;-87
2022/01/23 06:13:32;;;;;;;0.90;0.90;;;3.40;99.90;;;;;;5013768;28;20037;-87
2022/01/23 06:16:00;;;;;;;0.50;0.50;;;3.40;99.90;;;;;;5003477;28;20030;-86
2022/01/23 06:18:26;;;;;;;0.70;0.70;;;3.40;99.90;;;;;;5013877;28;20481;-87
2022/01/23 06:20:53;;;;;;;0.68;0.68;;;3.40;99.90;;;;;;5011066;28;20026;-87
2022/01/23 06:23:19;;;;;;;0.30;0.30;;;3.50;99.90;;;;;;5003801;28;20026;-87
2022/01/23 06:25:47;;;;;;;1.05;0.93;;;3.50;99.90;;;;;;5012548;28;20120;-76
2022/01/23 06:28:30;;;;;;;0.32;0.32;;;3.50;99.90;;;;;;5001045;28;20105;-87
2022/01/23 06:30:55;;;;;;;2.63;1.85;;;3.50;99.90;;;;;;5011386;28;20033;-75
2022/01/23 06:33:25;;;;;;;2.60;1.30;;;3.50;99.90;;;;;;5013613;28;20085;-87
2022/01/23 06:35:50;;;;;;;1.65;1.55;;;3.50;99.90;;;;;;5015518;28;20036;-75
2022/01/23 06:38:16;;;;;;;4.07;2.00;;;3.50;99.90;;;;;;5012507;28;20022;-86
2022/01/23 06:40:42;;;;;;;0.45;0.45;;;3.50;99.90;;;;;;5013873;28;20485;-88
2022/01/23 06:43:08;;;;;;;0.73;0.73;;;3.50;99.90;;;;;;5016131;28;20022;-75
2022/01/23 06:45:34;;;;;;;0.17;0.17;;;3.50;99.90;;;;;;5007673;28;20066;-87
2022/01/23 06:48:00;;;;;;;3.80;1.38;;;3.50;99.90;;;;;;5006717;28;20453;-88
2022/01/23 06:50:26;;;;;;;1.63;0.90;;;3.50;99.90;;;;;;5012059;28;20045;-87
2022/01/23 06:52:55;;;;;;;0.63;0.63;;;3.50;99.90;;;;;;5013192;28;20465;-87
2022/01/23 06:55:21;;;;;;;2.00;1.90;;;3.50;99.90;;;;;;5011527;28;20034;-87
2022/01/23 06:57:48;;;;;;;0.52;0.52;;;3.50;99.90;;;;;;5013569;28;20080;-86
2022/01/23 07:00:14;;;;;;;0.88;0.88;;;3.50;99.90;;;;;;5021928;28;20014;-86
2022/01/23 07:02:40;;;;;;;1.20;1.17;;;3.50;99.90;;;;;;5013508;28;20116;-86
2022/01/23 07:05:06;;;;;;;0.50;0.50;;;3.50;99.90;;;;;;5010405;28;20037;-75
2022/01/23 07:07:32;;;;;;;0.95;0.93;;;3.50;99.90;;;;;;5000302;28;20046;-76
2022/01/23 07:09:58;;;;;;;3.28;2.97;;;3.50;99.90;;;;;;5012863;28;20054;-87
2022/01/23 07:12:24;;;;;;;0.70;0.68;;;3.50;99.90;;;;;;5016985;28;20117;-75
2022/01/23 07:14:54;;;;;;;2.50;1.65;;;3.50;99.90;;;;;;5013078;28;20132;-86
2022/01/23 07:17:21;;;;;;;5.05;1.75;;;3.50;99.90;;;;;;5013154;28;20105;-75
2022/01/23 07:19:47;;;;;;;2.90;1.30;;;3.50;99.90;;;;;;5012941;28;20022;-75
2022/01/23 07:22:13;;;;;;;1.85;1.52;;;3.50;99.90;;;;;;5010795;28;20112;-75
2022/01/23 07:24:39;;;;;;;0.98;0.98;;;3.50;99.90;;;;;;5013003;28;20447;-87
2022/01/23 07:27:18;;;;;;;0.20;0.20;;;3.50;99.90;;;;;;5004776;28;20030;-87
2022/01/23 07:29:47;;;;;;;0.82;0.82;;;3.50;99.90;;;;;;4999744;28;20026;-87
2022/01/23 07:32:12;;;;;;;1.55;0.63;;;3.60;99.90;;;;;;5008047;28;20108;-80
2022/01/23 07:34:38;;;;;;;1.23;1.17;;;3.50;99.90;;;;;;5015182;28;20129;-86
2022/01/23 07:37:05;;;;;;;2.10;1.38;;;3.50;99.90;;;;;;5016320;28;20096;-75
2022/01/23 07:39:30;;;;;;;1.52;1.42;;;3.60;99.90;;;;;;5016939;28;20076;-87
2022/01/23 07:41:57;;;;;;;0.50;0.50;;;3.60;99.90;;;;;;5015515;28;20437;-75
2022/01/23 07:44:23;;;;;;;1.02;0.95;;;3.60;99.90;;;;;;5016681;28;20026;-87
2022/01/23 07:46:51;;;;;;;1.20;1.20;;;3.60;99.90;;;;;;5017479;28;20026;-75
2022/01/23 07:49:18;;;;;;;0.60;0.60;;;3.60;99.90;;;;;;5017213;28;20064;-87
2022/01/23 07:51:43;;;;;;;0.60;0.60;;;3.60;99.90;;;;;;5016709;28;20874;-87
2022/01/23 07:54:09;;;;;;;2.22;0.77;;;3.60;99.90;;;;;;5023057;28;20037;-86
2022/01/23 07:56:38;;;;;;;1.17;0.60;;;3.60;99.90;;;;;;5014991;28;20038;-86
2022/01/23 07:59:05;;;;;;;8.43;0.80;;;3.60;99.90;;;;;;5015343;28;20501;-87
2022/01/23 08:01:31;;;;;;;0.50;0.50;;;3.60;99.90;;;;;;5016196;28;20104;-86
2022/01/23 08:03:58;;;;;;;2.08;1.08;;;3.60;99.90;;;;;;5015584;28;20135;-87
2022/01/23 08:06:28;;;;;;;1.00;1.00;;;3.60;99.90;;;;;;5014619;28;20500;-79
2022/01/23 08:08:57;;;;;;;1.40;1.30;;;3.60;99.90;;;;;;5014661;28;20544;-87
2022/01/23 08:11:23;;;;;;;0.50;0.50;;;3.60;99.90;;;;;;5014253;28;20025;-87
2022/01/23 08:13:49;;;;;;;1.23;1.23;;;3.60;99.90;;;;;;5013830;28;20033;-87
2022/01/23 08:16:15;;;;;;;0.57;0.57;;;3.70;99.90;;;;;;5014605;28;20484;-87
2022/01/23 08:18:41;;;;;;;0.95;0.95;;;3.70;99.90;;;;;;5016638;28;20029;-75
2022/01/23 08:21:08;;;;;;;2.53;1.90;;;3.70;99.90;;;;;;5015842;28;20108;-86
2022/01/23 08:23:38;;;;;;;0.30;0.30;;;3.80;99.90;;;;;;5014539;28;20045;-87
2022/01/23 08:26:04;;;;;;;0.95;0.95;;;3.80;99.90;;;;;;5015024;28;20117;-87
2022/01/23 08:28:29;;;;;;;0.35;0.35;;;3.80;99.90;;;;;;5008365;28;20081;-87
2022/01/23 08:30:56;;;;;;;0.75;0.75;;;3.80;99.90;;;;;;5013809;28;20065;-87
2022/01/23 08:33:24;;;;;;;1.48;1.15;;;3.80;99.90;;;;;;5013227;28;20558;-87
2022/01/23 08:35:53;;;;;;;0.82;0.82;;;3.90;99.90;;;;;;5015706;28;20396;-87
2022/01/23 08:38:19;;;;;;;1.27;0.82;;;3.90;99.90;;;;;;5014208;28;20477;-87
2022/01/23 08:40:58;;;;;;;0.52;0.52;;;3.90;99.90;;;;;;5015475;28;20033;-75
2022/01/23 08:43:25;;;;;;;1.77;1.58;;;3.90;99.90;;;;;;5014648;28;20029;-87
2022/01/23 08:45:52;;;;;;;1.77;1.67;;;3.90;99.90;;;;;;5007123;28;20037;-87
2022/01/23 08:48:18;;;;;;;3.78;0.75;;;3.90;99.90;;;;;;5009622;28;20029;-87
2022/01/23 08:50:44;;;;;;;1.38;1.27;;;4.00;99.90;;;;;;5015379;28;20025;-75
2022/01/23 08:53:11;;;;;;;0.88;0.88;;;4.10;99.90;;;;;;5015344;28;20509;-87
2022/01/23 08:55:37;;;;;;;0.75;0.75;;;4.10;99.90;;;;;;5014120;28;20080;-86
2022/01/23 08:58:03;;;;;;;6.38;2.80;;;4.10;99.90;;;;;;5013515;28;20054;-85
2022/01/23 09:00:30;;;;;;;2.70;2.10;;;4.10;99.90;;;;;;5014133;28;20022;-87
2022/01/23 09:02:56;;;;;;;1.02;0.93;;;4.20;99.90;;;;;;5015492;28;20401;-75
2022/01/23 09:05:24;;;;;;;0.63;0.63;;;4.10;99.90;;;;;;5014838;28;20432;-87
2022/01/23 09:07:49;;;;;;;0.45;0.45;;;4.20;99.90;;;;;;5014282;28;20022;-75
2022/01/23 09:10:24;;;;;;;13.57;2.60;;;4.30;99.90;;;;;;5019496;28;20036;-87
2022/01/23 09:15:36;;;;;;;0.55;0.55;;;4.40;99.90;;;;;;4974322;28;20061;-75
2022/01/23 09:18:03;;;;;;;1.13;1.02;;;4.40;99.90;;;;;;5013102;28;20212;-76
2022/01/23 09:20:29;;;;;;;1.45;1.35;;;4.40;99.90;;;;;;5012494;28;20022;-87
2022/01/23 09:22:55;;;;;;;1.63;1.52;;;4.40;99.90;;;;;;4997933;28;20038;-75
2022/01/23 09:25:21;;;;;;;2.95;1.63;;;4.50;99.90;;;;;;5009066;28;20400;-87
2022/01/23 09:27:47;;;;;;;2.15;1.52;;;4.50;99.90;;;;;;5013571;28;20030;-75
2022/01/23 09:30:17;;;;;;;2.40;1.23;;;4.60;99.90;;;;;;5012166;28;20033;-75
2022/01/23 09:32:44;;;;;;;0.40;0.40;;;4.70;99.90;;;;;;5012285;28;20057;-76
2022/01/23 09:35:11;;;;;;;4.75;2.10;;;4.60;99.90;;;;;;5015071;28;20064;-86
2022/01/23 09:37:38;;;;;;;0.85;0.85;;;4.60;99.90;;;;;;5013378;28;20489;-87
2022/01/23 09:40:05;;;;;;;0.63;0.63;;;4.80;99.90;;;;;;5014709;28;20014;-75
2022/01/23 09:42:52;;;;;;;0.05;0.05;;;5.00;99.90;;;;;;5015381;28;20058;-87
2022/01/23 09:45:20;;;;;;;0.98;0.98;;;5.00;99.90;;;;;;5014391;28;20014;-87
2022/01/23 09:47:46;;;;;;;0.32;0.32;;;5.00;99.90;;;;;;5012245;28;20481;-75
2022/01/23 09:50:14;;;;;;;2.95;1.50;;;5.10;99.90;;;;;;5013557;28;20056;-88
2022/01/23 09:52:41;;;;;;;0.45;0.45;;;5.10;99.90;;;;;;5020397;28;20532;-75
2022/01/23 09:55:11;;;;;;;1.58;1.15;;;5.10;99.90;;;;;;5014080;28;20022;-75
2022/01/23 09:57:41;;;;;;;4.90;2.63;;;5.20;99.90;;;;;;5012637;28;20505;-88
2022/01/23 10:00:19;;;;;;;1.40;1.35;;;5.30;99.90;;;;;;5013388;28;20492;-87
2022/01/23 10:02:46;;;;;;;0.98;0.98;;;5.30;99.90;;;;;;5012700;28;20034;-75
2022/01/23 10:05:13;;;;;;;1.15;1.15;;;5.30;99.90;;;;;;5013969;28;20030;-88
2022/01/23 10:07:41;;;;;;;0.22;0.22;;;5.60;99.90;;;;;;5013944;28;20030;-75
2022/01/23 10:10:15;;;;;;;3.25;0.98;;;6.00;99.90;;;;;;5012537;28;20026;-87
2022/01/23 10:12:44;;;;;;;3.25;0.50;;;6.10;99.90;;;;;;5012791;28;20034;-75
2022/01/23 10:15:11;;;;;;;0.63;0.63;;;6.10;99.90;;;;;;5010917;28;20018;-87
2022/01/23 10:17:37;;;;;;;0.35;0.35;;;5.90;99.90;;;;;;5012199;28;20022;-75
2022/01/23 10:20:09;;;;;;;0.43;0.43;;;5.50;99.90;;;;;;5013721;28;20029;-75
2022/01/23 10:22:36;;;;;;;1.73;1.60;;;5.50;99.90;;;;;;5013402;28;20041;-75
2022/01/23 10:25:11;;;;;;;0.22;0.22;;;5.40;99.90;;;;;;5014779;28;20069;-75
2022/01/23 10:28:12;;;;;;;0.47;0.47;;;5.50;99.90;;;;;;5012536;28;20018;-75
2022/01/23 10:30:46;;;;;;;0.82;0.82;;;5.60;99.90;;;;;;5011115;28;20476;-75
2022/01/23 10:33:17;;;;;;;2.28;2.08;;;5.80;99.90;;;;;;5011932;28;20030;-75
2022/01/23 10:36:08;;;;;;;0.73;0.73;;;6.00;99.90;;;;;;5013710;28;20045;-87
2022/01/23 10:38:43;;;;;;;0.90;0.43;;;6.20;99.90;;;;;;5011759;28;20022;-76
2022/01/23 10:46:53;;;;;;;0.52;0.52;;;6.20;99.90;;;;;;5012635;28;20033;-87
2022/01/23 10:49:19;;;;;;;0.45;0.45;;;6.00;99.90;;;;;;5012225;28;20030;-87
2022/01/23 10:51:49;;;;;;;0.60;0.60;;;5.80;99.90;;;;;;5013082;28;20042;-75
2022/01/23 10:54:21;;;;;;;0.85;0.38;;;5.70;99.90;;;;;;5013991;28;20034;-75
2022/01/23 10:57:01;;;;;;;1.65;0.60;;;5.80;99.90;;;;;;5011390;28;20397;-75
2022/01/23 10:59:41;;;;;;;1.83;0.70;;;6.00;99.90;;;;;;5001577;28;20497;-76
2022/01/23 11:02:10;;;;;;;4.85;1.90;;;6.10;99.90;;;;;;4999653;28;20544;-75
2022/01/23 11:04:54;;;;;;;3.10;0.75;;;6.10;99.90;;;;;;5012850;28;20424;-75
2022/01/23 11:07:21;;;;;;;0.73;0.73;;;6.20;99.90;;;;;;5010877;28;20053;-75
2022/01/23 11:09:47;;;;;;;2.38;1.05;;;6.30;99.90;;;;;;5011383;28;20049;-87
2022/01/23 11:18:10;;;;;;;0.22;0.22;;;6.40;99.90;;;;;;5013037;28;20052;-76
2022/01/23 11:20:58;;;;;;;1.27;1.17;;;6.40;99.90;;;;;;5012562;28;20018;-75
2022/01/23 11:23:30;;;;;;;1.33;0.75;;;6.50;99.90;;;;;;5003507;28;20022;-87
2022/01/23 11:25:57;;;;;;;0.60;0.60;;;6.40;99.90;;;;;;5013263;28;20036;-75
2022/01/23 11:28:45;;;;;;;0.00;0.00;;;6.60;99.90;;;;;;5007925;28;20091;-87
2022/01/23 11:31:21;;;;;;;0.40;0.40;;;6.80;99.90;;;;;;5010437;28;20037;-87
2022/01/23 11:33:49;;;;;;;0.52;0.52;;;7.10;99.90;;;;;;5010972;28;20460;-75
2022/01/23 11:36:18;;;;;;;1.52;0.95;;;7.30;99.90;;;;;;5011230;28;20033;-75
2022/01/23 11:38:46;;;;;;;0.05;0.05;;;7.40;99.90;;;;;;5012609;28;20022;-87
2022/01/23 11:55:32;;;;;;;1.95;0.95;;;7.80;99.90;;;;;;5008848;28;20046;-75
2022/01/23 11:57:59;;;;;;;0.80;0.77;;;7.90;99.90;;;;;;5007355;28;20047;-75
2022/01/23 12:00:36;;;;;;;0.65;0.65;;;7.90;99.90;;;;;;5010193;28;20022;-87
2022/01/23 12:03:10;;;;;;;0.63;0.63;;;7.90;99.90;;;;;;5010287;28;20105;-75
2022/01/23 12:05:39;;;;;;;0.57;0.57;;;8.10;99.90;;;;;;5011559;28;20128;-75
2022/01/23 12:08:15;;;;;;;4.85;1.67;;;8.40;99.90;;;;;;5010794;28;20464;-75
2022/01/23 12:11:17;;;;;;;2.08;1.17;;;8.30;99.90;;;;;;5013329;28;20393;-88
2022/01/23 12:16:26;;;;;;;8.63;1.17;;;8.50;99.90;;;;;;5011529;28;20017;-87
2022/01/23 12:19:31;;;;;;;1.13;0.85;;;8.40;99.90;;;;;;5011659;28;20060;-75
2022/01/23 12:22:17;;;;;;;1.10;0.70;;;8.40;99.90;;;;;;5014777;28;20061;-88
2022/01/23 12:24:49;;;;;;;1.23;0.95;;;8.40;99.90;;;;;;5015781;28;20026;-75
2022/01/23 12:27:26;;;;;;;0.43;0.43;;;8.60;99.90;;;;;;5005003;28;20022;-76
2022/01/23 12:30:08;;;;;;;1.48;0.75;;;8.70;99.90;;;;;;5016182;28;20051;-88
2022/01/23 12:32:36;;;;;;;0.50;0.50;;;8.80;99.90;;;;;;5014381;28;20080;-75
2022/01/23 12:35:07;;;;;;;3.40;1.30;;;8.80;99.90;;;;;;5016071;28;20397;-75
2022/01/23 12:37:55;;;;;;;0.77;0.77;;;8.90;99.90;;;;;;5014949;28;20045;-76
2022/01/23 12:40:36;;;;;;;0.47;0.13;;;8.80;99.90;;;;;;5014123;28;20436;-87
2022/01/23 12:43:11;;;;;;;1.75;0.65;;;8.90;99.90;;;;;;5015559;28;20022;-75
2022/01/23 12:45:57;;;;;;;1.20;0.98;;;8.90;99.90;;;;;;5013893;28;20412;-76
2022/01/23 12:48:26;;;;;;;1.98;0.80;;;9.00;99.90;;;;;;5011823;28;20037;-76
2022/01/23 12:51:12;;;;;;;0.30;0.30;;;9.10;99.90;;;;;;5013604;28;20074;-76
2022/01/23 12:53:57;;;;;;;0.10;0.10;;;9.30;99.90;;;;;;5013290;28;20034;-87
2022/01/23 12:56:41;;;;;;;0.40;0.40;;;9.40;99.90;;;;;;5014820;28;20543;-88
2022/01/23 12:59:11;;;;;;;0.60;0.60;;;9.60;99.90;;;;;;5016396;28;20042;-75
2022/01/23 13:01:41;;;;;;;1.25;1.17;;;9.50;99.90;;;;;;5015170;28;20018;-87
2022/01/23 13:04:08;;;;;;;1.35;1.02;;;9.50;99.90;;;;;;5014691;28;20532;-75
2022/01/23 13:06:49;;;;;;;1.30;0.73;;;9.50;99.90;;;;;;5012061;28;20112;-75
2022/01/23 13:14:46;;;;;;;4.85;0.93;;;9.50;99.90;;;;;;5014311;28;20041;-77
2022/01/23 13:30:55;;;;;;;0.68;0.38;;;9.80;99.90;;;;;;5001643;28;20596;-76
2022/01/23 13:33:23;;;;;;;0.68;0.52;;;9.90;99.90;;;;;;5014554;28;20142;-88
2022/01/23 13:35:52;;;;;;;1.55;0.52;;;9.90;99.90;;;;;;5010947;28;20087;-87
2022/01/23 13:38:22;;;;;;;1.45;0.85;;;10.10;99.90;;;;;;5014823;28;20402;-76
2022/01/23 13:41:08;;;;;;;0.85;0.85;;;10.30;99.90;;;;;;5012505;28;20486;-76
2022/01/23 14:02:20;;;;;;;0.10;0.10;;;10.10;99.90;;;;;;5014334;28;20029;-87
2022/01/23 14:04:51;;;;;;;1.60;1.48;;;9.90;99.90;;;;;;5012423;28;20121;-76
2022/01/23 14:07:26;;;;;;;1.02;0.77;;;9.90;99.90;;;;;;5012169;28;20531;-75
2022/01/23 14:09:55;;;;;;;0.50;0.50;;;9.90;99.90;;;;;;5011093;28;20056;-88
2022/01/23 14:12:22;;;;;;;0.47;0.47;;;9.90;99.90;;;;;;5014060;28;20408;-87
2022/01/23 14:15:04;;;;;;;7.05;1.55;;;9.80;99.90;;;;;;5013454;28;20084;-75
2022/01/23 14:17:36;;;;;;;0.05;0.05;;;9.80;99.90;;;;;;5011394;28;20480;-75
2022/01/23 14:20:16;;;;;;;1.15;1.10;;;9.70;99.90;;;;;;4999903;28;20481;-87
2022/01/23 14:22:46;;;;;;;1.10;0.60;;;9.60;99.90;;;;;;5013507;28;20561;-75
2022/01/23 14:25:26;;;;;;;0.10;0.10;;;9.70;99.90;;;;;;5012389;28;20034;-75
2022/01/23 14:28:10;;;;;;;0.10;0.10;;;9.70;99.90;;;;;;5010738;28;20054;-75
2022/01/23 14:30:44;;;;;;;0.15;0.15;;;9.70;99.90;;;;;;5010293;28;20037;-87
2022/01/23 14:33:16;;;;;;;1.33;1.23;;;9.50;99.90;;;;;;5005336;28;20027;-75
2022/01/23 14:35:42;;;;;;;0.60;0.60;;;9.60;99.90;;;;;;5009966;28;20022;-75
2022/01/23 14:38:15;;;;;;;4.57;1.55;;;9.80;99.90;;;;;;5008297;28;20056;-87
2022/01/23 14:41:01;;;;;;;2.83;1.02;;;9.70;99.90;;;;;;5012201;28;20517;-75
2022/01/23 14:43:36;;;;;;;0.25;0.25;;;9.70;99.90;;;;;;5011891;28;20132;-88
2022/01/23 14:46:04;;;;;;;1.02;0.28;;;9.60;99.90;;;;;;5016784;28;20009;-87
2022/01/23 14:48:33;;;;;;;0.52;0.38;;;9.60;99.90;;;;;;5015122;28;20034;-75
2022/01/23 14:51:03;;;;;;;1.15;1.05;;;9.50;99.90;;;;;;5012008;28;20378;-75
2022/01/23 14:53:29;;;;;;;0.20;0.20;;;9.30;99.90;;;;;;5011400;28;20034;-88
2022/01/23 14:55:59;;;;;;;0.95;0.85;;;9.10;99.90;;;;;;5012233;28;20093;-87
2022/01/23 14:58:28;;;;;;;1.08;0.30;;;9.00;99.90;;;;;;5014960;28;20504;-88
2022/01/23 15:00:59;;;;;;;0.20;0.20;;;9.00;99.90;;;;;;5001109;28;20046;-75
2022/01/23 15:03:27;;;;;;;0.08;0.03;;;8.90;99.90;;;;;;5012495;28;20041;-87
2022/01/23 15:05:54;;;;;;;0.77;0.60;;;9.10;99.90;;;;;;5005703;28;20027;-76
2022/01/23 15:08:22;;;;;;;0.00;0.00;;;9.00;99.90;;;;;;4998416;28;20030;-76
2022/01/23 15:10:50;;;;;;;0.40;0.40;;;9.00;99.90;;;;;;5012296;28;20400;-75
2022/01/23 15:13:16;;;;;;;2.72;0.80;;;9.00;99.90;;;;;;5006972;28;20030;-75
2022/01/23 15:15:42;;;;;;;1.10;0.30;;;8.90;99.90;;;;;;5005651;28;20397;-87
2022/01/23 15:18:08;;;;;;;2.50;1.33;;;9.00;99.90;;;;;;5010933;28;20029;-75
2022/01/23 15:20:35;;;;;;;0.20;0.20;;;8.90;99.90;;;;;;5010350;28;20099;-75
2022/01/23 15:23:05;;;;;;;0.47;0.47;;;8.90;99.90;;;;;;5012502;28;20033;-75
2022/01/23 15:25:33;;;;;;;0.90;0.65;;;8.90;99.90;;;;;;5012249;28;20037;-87
2022/01/23 15:27:59;;;;;;;1.02;0.30;;;8.90;99.90;;;;;;5002085;28;20049;-75
2022/01/23 15:30:26;;;;;;;0.63;0.63;;;8.90;99.90;;;;;;5004505;28;20084;-88
2022/01/23 15:32:54;;;;;;;0.05;0.05;;;8.80;99.90;;;;;;5007256;28;20390;-76
2022/01/23 15:35:22;;;;;;;0.32;0.30;;;8.70;99.90;;;;;;5006760;28;20028;-88
2022/01/23 15:37:49;;;;;;;0.28;0.28;;;8.70;99.90;;;;;;5008487;28;20057;-75
2022/01/23 15:40:21;;;;;;;9.20;1.77;;;8.60;99.90;;;;;;5012761;28;20084;-75
2022/01/23 15:42:49;;;;;;;0.47;0.47;;;8.40;99.90;;;;;;5012493;28;20025;-87
2022/01/23 15:45:16;;;;;;;0.50;0.50;;;8.50;99.90;;;;;;5012161;28;20076;-88
2022/01/23 15:47:43;;;;;;;0.63;0.35;;;8.50;99.90;;;;;;5013035;28;20033;-75
2022/01/23 15:50:12;;;;;;;0.08;0.08;;;8.50;99.90;;;;;;5012877;28;20121;-75
2022/01/23 15:52:38;;;;;;;0.20;0.20;;;8.50;99.90;;;;;;5011718;28;20030;-75
2022/01/23 15:55:08;;;;;;;0.52;0.52;;;8.20;99.90;;;;;;5015343;28;20036;-75
2022/01/23 15:57:36;;;;;;;0.20;0.20;;;8.00;99.90;;;;;;5016549;28;20452;-75
2022/01/23 16:00:05;;;;;;;4.60;0.55;;;7.80;99.90;;;;;;5014997;28;20021;-75
2022/01/23 16:02:31;;;;;;;5.35;0.65;;;7.80;99.90;;;;;;5015079;28;20084;-88
2022/01/23 16:04:59;;;;;;;0.77;0.75;;;7.70;99.90;;;;;;5016186;28;20018;-75
2022/01/23 16:07:25;;;;;;;0.57;0.57;;;7.50;99.90;;;;;;5014282;28;20034;-75
2022/01/23 16:09:51;;;;;;;0.00;0.00;;;7.40;99.90;;;;;;5014057;28;20033;-88
2022/01/23 16:12:18;;;;;;;0.30;0.20;;;7.40;99.90;;;;;;5014671;28;20037;-87
2022/01/23 16:14:44;;;;;;;9.65;1.45;;;7.30;99.90;;;;;;5015881;28;20037;-87
2022/01/23 16:17:10;;;;;;;13.85;2.28;;;7.20;99.90;;;;;;5016488;28;20026;-87
2022/01/23 16:19:37;;;;;;;0.00;0.00;;;7.20;99.90;;;;;;5014970;28;20021;-75
2022/01/23 16:22:04;;;;;;;2.53;1.85;;;7.10;99.90;;;;;;5015922;28;20370;-75
2022/01/23 16:24:31;;;;;;;0.00;0.00;;;7.00;99.90;;;;;;5009923;28;20413;-75
2022/01/23 16:26:56;;;;;;;1.25;0.40;;;6.80;99.90;;;;;;5000569;28;20027;-87
2022/01/23 16:29:25;;;;;;;2.47;0.38;;;6.80;99.90;;;;;;5014518;28;20072;-87
2022/01/23 16:31:53;;;;;;;10.23;1.30;;;6.70;99.90;;;;;;5015653;28;20029;-87
2022/01/23 16:34:21;;;;;;;0.15;0.15;;;6.70;99.90;;;;;;5014359;28;20037;-75
2022/01/23 16:36:48;;;;;;;0.00;0.00;;;6.50;99.90;;;;;;5008559;28;20089;-76
2022/01/23 16:39:18;;;;;;;2.03;1.88;;;6.40;99.90;;;;;;5014569;28;20022;-88
2022/01/23 16:41:44;;;;;;;0.40;0.40;;;6.20;99.90;;;;;;5014996;28;20029;-75
2022/01/23 16:44:12;;;;;;;0.85;0.60;;;6.00;99.90;;;;;;5014526;28;20030;-76
2022/01/23 16:46:41;;;;;;;0.00;0.00;;;5.70;99.90;;;;;;5014320;28;20053;-87
2022/01/23 16:49:12;;;;;;;1.55;0.80;;;5.30;99.90;;;;;;5003977;28;20033;-87
2022/01/23 16:51:38;;;;;;;0.08;0.08;;;5.10;99.90;;;;;;5015118;28;20041;-75
2022/01/23 16:54:10;;;;;;;0.00;0.00;;;4.80;99.90;;;;;;5012401;28;20604;-75